createdAt,value
2018-04-02T00:00:01.539Z,10.07
2018-04-02T00:00:36.046Z,10.43
2018-04-02T00:01:09.819Z,9.23
2018-04-02T00:01:43.557Z,10.27
2018-04-02T00:02:18.040Z,9.75
2018-04-02T00:02:52.575Z,9.98
2018-04-02T00:03:26.319Z,10.35
2018-04-02T00:04:00.149Z,9.75
2018-04-02T00:04:34.641Z,9.55
2018-04-02T00:05:09.915Z,9.95
2018-04-02T00:05:43.661Z,9.93
2018-04-02T00:06:17.400Z,9.15
2018-04-02T00:06:51.130Z,9.00
2018-04-02T00:07:24.851Z,9.90
2018-04-02T00:07:59.387Z,10.00
2018-04-02T00:08:33.215Z,9.75
2018-04-02T00:09:06.274Z,9.68
2018-04-02T00:09:40.203Z,8.77
2018-04-02T00:10:14.706Z,10.13
2018-04-02T00:10:49.585Z,9.43
2018-04-02T00:11:23.079Z,9.13
2018-04-02T00:11:56.585Z,10.52
2018-04-02T00:12:30.302Z,9.13
2018-04-02T00:13:10.948Z,9.23
2018-04-02T00:13:45.587Z,10.50
2018-04-02T00:14:19.069Z,9.40
2018-04-02T00:14:53.563Z,9.55
2018-04-02T00:15:28.259Z,10.10
2018-04-02T00:16:02.059Z,9.57
2018-04-02T00:16:35.780Z,10.18
2018-04-02T00:17:09.527Z,9.30
2018-04-02T00:17:43.247Z,9.00
2018-04-02T00:18:17.769Z,9.45
2018-04-02T00:18:51.749Z,9.63
2018-04-02T00:19:26.245Z,9.45
2018-04-02T00:19:59.961Z,9.25
2018-04-02T00:20:34.435Z,9.50
2018-04-02T00:21:08.162Z,9.02
2018-04-02T00:21:42.645Z,9.20
2018-04-02T00:22:16.422Z,10.10
2018-04-02T00:22:50.151Z,11.05
2018-04-02T00:23:24.691Z,9.68
2018-04-02T00:23:58.442Z,9.45
2018-04-02T00:24:32.324Z,10.10
2018-04-02T00:25:06.805Z,9.40
2018-04-02T00:25:40.538Z,9.38
2018-04-02T00:26:15.028Z,10.18
2018-04-02T00:26:48.747Z,9.05
2018-04-02T00:27:23.233Z,8.75
2018-04-02T00:27:56.953Z,9.15
2018-04-02T00:28:30.694Z,8.93
2018-04-02T00:29:04.425Z,8.75
2018-04-02T00:29:38.935Z,9.40
2018-04-02T00:30:12.656Z,10.00
2018-04-02T00:30:46.391Z,9.38
2018-04-02T00:31:20.125Z,9.75
2018-04-02T00:31:53.871Z,9.45
2018-04-02T00:32:27.590Z,9.20
2018-04-02T00:33:02.076Z,8.90
2018-04-02T00:33:35.828Z,9.57
2018-04-02T00:34:09.553Z,9.85
2018-04-02T00:34:44.047Z,10.23
2018-04-02T00:35:17.756Z,9.88
2018-04-02T00:35:51.490Z,9.18
2018-04-02T00:36:25.210Z,9.45
2018-04-02T00:36:58.925Z,8.77
2018-04-02T00:37:32.641Z,9.85
2018-04-02T00:38:07.173Z,8.85
2018-04-02T00:38:40.596Z,9.30
2018-04-02T00:39:14.313Z,8.57
2018-04-02T00:39:49.114Z,9.15
2018-04-02T00:40:22.837Z,8.57
2018-04-02T00:40:57.316Z,9.35
2018-04-02T00:41:30.803Z,9.10
2018-04-02T00:42:05.323Z,9.65
2018-04-02T00:42:40.642Z,10.13
2018-04-02T00:43:14.361Z,9.20
2018-04-02T00:43:48.863Z,8.45
2018-04-02T00:44:23.343Z,8.40
2018-04-02T00:44:57.116Z,8.73
2018-04-02T00:45:30.838Z,8.45
2018-04-02T00:46:04.203Z,8.43
2018-04-02T00:46:38.097Z,8.32
2018-04-02T00:47:11.831Z,9.38
2018-04-02T00:47:45.639Z,9.65
2018-04-02T00:48:19.352Z,9.10
2018-04-02T00:48:53.123Z,8.85
2018-04-02T00:49:27.771Z,9.48
2018-04-02T00:50:01.485Z,8.80
2018-04-02T00:50:35.972Z,9.60
2018-04-02T00:51:09.703Z,8.82
2018-04-02T00:51:43.425Z,9.23
2018-04-02T00:52:17.129Z,9.52
2018-04-02T00:52:50.843Z,9.65
2018-04-02T00:53:24.548Z,8.43
2018-04-02T00:53:59.074Z,9.70
2018-04-02T00:54:32.786Z,8.63
2018-04-02T00:55:06.512Z,9.38
2018-04-02T00:55:40.260Z,8.90
2018-04-02T00:56:13.998Z,9.40
2018-04-02T00:56:47.709Z,8.68
2018-04-02T00:57:22.386Z,9.25
2018-04-02T00:57:56.085Z,9.50
2018-04-02T00:58:29.787Z,9.27
2018-04-02T00:59:03.531Z,9.18
2018-04-02T00:59:37.244Z,9.35
2018-04-02T01:00:10.641Z,8.85
2018-04-02T01:00:44.365Z,9.60
2018-04-02T01:01:18.847Z,9.10
2018-04-02T01:01:52.569Z,9.40
2018-04-02T01:02:27.052Z,9.75
2018-04-02T01:03:00.772Z,8.32
2018-04-02T01:03:36.249Z,9.18
2018-04-02T01:04:09.981Z,9.00
2018-04-02T01:04:44.471Z,9.43
2018-04-02T01:05:18.243Z,9.38
2018-04-02T01:05:52.639Z,10.25
2018-04-02T01:06:26.123Z,9.70
2018-04-02T01:06:59.845Z,9.15
2018-04-02T01:07:33.654Z,9.88
2018-04-02T01:08:07.347Z,9.07
2018-04-02T01:08:41.821Z,9.07
2018-04-02T01:09:15.577Z,9.60
2018-04-02T01:09:49.314Z,9.20
2018-04-02T01:10:23.928Z,9.25
2018-04-02T01:10:57.647Z,9.98
2018-04-02T01:11:32.127Z,8.77
2018-04-02T01:12:05.972Z,9.52
2018-04-02T01:12:39.709Z,9.80
2018-04-02T01:13:13.423Z,9.43
2018-04-02T01:13:47.273Z,9.95
2018-04-02T01:14:21.006Z,9.70
2018-04-02T01:14:55.479Z,9.52
2018-04-02T01:15:29.262Z,9.55
2018-04-02T01:16:02.992Z,8.95
2018-04-02T01:16:37.480Z,10.18
2018-04-02T01:17:11.201Z,9.43
2018-04-02T01:17:45.703Z,8.48
2018-04-02T01:18:20.182Z,9.95
2018-04-02T01:18:53.906Z,9.15
2018-04-02T01:19:28.414Z,9.60
2018-04-02T01:20:04.035Z,9.68
2018-04-02T01:20:38.514Z,9.52
2018-04-02T01:21:12.248Z,8.77
2018-04-02T01:21:46.773Z,9.07
2018-04-02T01:22:20.506Z,9.80
2018-04-02T01:22:55.377Z,8.88
2018-04-02T01:23:29.896Z,9.38
2018-04-02T01:24:03.728Z,9.05
2018-04-02T01:24:37.471Z,9.38
2018-04-02T01:25:12.943Z,8.60
2018-04-02T01:25:46.659Z,10.05
2018-04-02T01:26:20.378Z,9.75
2018-04-02T01:26:54.873Z,9.10
2018-04-02T01:27:28.585Z,9.63
2018-04-02T01:28:02.317Z,9.27
2018-04-02T01:28:36.956Z,8.90
2018-04-02T01:29:10.680Z,9.80
2018-04-02T01:29:44.514Z,9.57
2018-04-02T01:30:18.248Z,9.23
2018-04-02T01:30:52.831Z,8.73
2018-04-02T01:31:26.553Z,9.32
2018-04-02T01:32:01.028Z,8.55
2018-04-02T01:32:34.745Z,9.85
2018-04-02T01:33:09.252Z,10.00
2018-04-02T01:33:42.968Z,9.27
2018-04-02T01:34:16.686Z,8.25
2018-04-02T01:34:50.705Z,8.93
2018-04-02T01:35:24.579Z,8.95
2018-04-02T01:35:58.307Z,9.27
2018-04-02T01:36:32.199Z,9.35
2018-04-02T01:37:07.565Z,8.45
2018-04-02T01:37:41.282Z,9.40
2018-04-02T01:38:14.999Z,9.13
2018-04-02T01:38:48.700Z,8.63
2018-04-02T01:39:22.428Z,9.35
2018-04-02T01:39:56.302Z,8.80
2018-04-02T01:40:33.628Z,8.75
2018-04-02T01:41:07.341Z,8.52
2018-04-02T01:41:41.043Z,9.02
2018-04-02T01:42:14.756Z,8.35
2018-04-02T01:42:49.237Z,8.70
2018-04-02T01:43:22.972Z,9.32
2018-04-02T01:43:56.698Z,7.55
2018-04-02T01:44:30.833Z,9.07
2018-04-02T01:45:05.343Z,8.82
2018-04-02T01:45:41.218Z,8.52
2018-04-02T01:46:14.926Z,8.43
2018-04-02T01:46:48.424Z,8.30
2018-04-02T01:47:22.240Z,8.60
2018-04-02T01:47:56.728Z,9.02
2018-04-02T01:48:30.449Z,8.70
2018-04-02T01:49:04.934Z,7.97
2018-04-02T01:49:38.649Z,8.88
2018-04-02T01:50:13.176Z,8.50
2018-04-02T01:50:47.658Z,8.40
2018-04-02T01:51:21.379Z,9.15
2018-04-02T01:51:55.112Z,8.43
2018-04-02T01:52:28.828Z,8.50
2018-04-02T01:53:02.546Z,8.95
2018-04-02T01:53:37.032Z,8.50
2018-04-02T01:54:10.854Z,7.70
2018-04-02T01:54:46.062Z,6.70
2018-04-02T01:55:20.577Z,7.53
2018-04-02T01:55:55.058Z,8.10
2018-04-02T01:56:28.793Z,7.65
2018-04-02T01:57:02.504Z,7.75
2018-04-02T01:57:35.979Z,7.15
2018-04-02T01:58:09.692Z,7.30
2018-04-02T01:58:43.402Z,6.57
2018-04-02T01:59:17.119Z,7.37
2018-04-02T01:59:51.591Z,6.80
2018-04-02T02:00:25.338Z,7.47
2018-04-02T02:00:59.059Z,7.65
2018-04-02T02:01:32.946Z,7.60
2018-04-02T02:02:06.512Z,7.43
2018-04-02T02:02:39.990Z,7.28
2018-04-02T02:03:13.476Z,6.97
2018-04-02T02:03:47.191Z,7.53
2018-04-02T02:04:20.915Z,7.32
2018-04-02T02:04:54.640Z,7.57
2018-04-02T02:05:29.143Z,6.40
2018-04-02T02:06:03.580Z,6.82
2018-04-02T02:06:37.050Z,7.30
2018-04-02T02:07:10.766Z,6.93
2018-04-02T02:07:44.481Z,7.22
2018-04-02T02:08:18.181Z,6.87
2018-04-02T02:08:51.886Z,6.60
2018-04-02T02:09:25.269Z,6.60
2018-04-02T02:09:59.065Z,6.95
2018-04-02T02:10:33.576Z,6.43
2018-04-02T02:11:08.053Z,6.65
2018-04-02T02:11:41.792Z,6.62
2018-04-02T02:12:16.281Z,7.00
2018-04-02T02:12:49.988Z,7.05
2018-04-02T02:13:24.468Z,6.32
2018-04-02T02:13:58.169Z,6.82
2018-04-02T02:14:32.072Z,6.30
2018-04-02T02:15:06.584Z,7.37
2018-04-02T02:15:41.069Z,7.25
2018-04-02T02:16:14.776Z,6.60
2018-04-02T02:16:49.252Z,6.78
2018-04-02T02:17:22.970Z,6.70
2018-04-02T02:17:56.671Z,6.30
2018-04-02T02:18:31.156Z,6.45
2018-04-02T02:19:04.542Z,8.40
2018-04-02T02:19:38.245Z,6.75
2018-04-02T02:20:12.508Z,6.45
2018-04-02T02:20:46.272Z,6.60
2018-04-02T02:21:19.990Z,6.97
2018-04-02T02:21:53.706Z,7.62
2018-04-02T02:22:27.201Z,6.15
2018-04-02T02:23:00.914Z,7.03
2018-04-02T02:23:35.606Z,6.40
2018-04-02T02:24:09.322Z,6.57
2018-04-02T02:24:43.052Z,5.72
2018-04-02T02:25:16.755Z,6.45
2018-04-02T02:25:50.491Z,6.55
2018-04-02T02:26:24.214Z,7.15
2018-04-02T02:26:57.924Z,6.10
2018-04-02T02:27:31.626Z,6.95
2018-04-02T02:28:05.127Z,6.57
2018-04-02T02:28:39.586Z,6.53
2018-04-02T02:29:13.284Z,6.80
2018-04-02T02:29:47.005Z,6.57
2018-04-02T02:30:20.735Z,7.40
2018-04-02T02:30:54.487Z,6.45
2018-04-02T02:31:28.190Z,7.40
2018-04-02T02:32:02.667Z,6.45
2018-04-02T02:32:36.373Z,6.70
2018-04-02T02:33:10.086Z,6.37
2018-04-02T02:33:44.627Z,7.10
2018-04-02T02:34:18.476Z,6.72
2018-04-02T02:34:52.197Z,7.35
2018-04-02T02:35:25.978Z,7.10
2018-04-02T02:36:00.517Z,6.00
2018-04-02T02:36:34.254Z,6.47
2018-04-02T02:37:07.963Z,7.05
2018-04-02T02:37:42.444Z,6.95
2018-04-02T02:38:16.150Z,6.28
2018-04-02T02:38:50.646Z,6.18
2018-04-02T02:39:24.381Z,6.87
2018-04-02T02:39:58.100Z,6.57
2018-04-02T02:40:31.830Z,6.18
2018-04-02T02:41:05.571Z,6.60
2018-04-02T02:41:39.273Z,6.03
2018-04-02T02:42:12.448Z,6.50
2018-04-02T02:42:46.182Z,6.80
2018-04-02T02:43:20.660Z,6.62
2018-04-02T02:43:54.404Z,6.53
2018-04-02T02:44:28.135Z,6.22
2018-04-02T02:45:01.625Z,6.50
2018-04-02T02:45:35.099Z,6.22
2018-04-02T02:46:08.842Z,5.32
2018-04-02T02:46:43.326Z,6.47
2018-04-02T02:47:16.836Z,6.40
2018-04-02T02:47:51.091Z,6.65
2018-04-02T02:48:24.798Z,6.43
2018-04-02T02:48:58.518Z,6.53
2018-04-02T02:49:33.004Z,7.07
2018-04-02T02:50:06.731Z,6.37
2018-04-02T02:50:41.221Z,6.45
2018-04-02T02:51:15.423Z,7.03
2018-04-02T02:51:49.913Z,7.53
2018-04-02T02:52:23.660Z,6.85
2018-04-02T02:52:57.371Z,6.62
2018-04-02T02:53:31.124Z,6.60
2018-04-02T02:54:04.846Z,6.45
2018-04-02T02:54:38.556Z,6.80
2018-04-02T02:55:12.261Z,6.70
2018-04-02T02:55:45.986Z,6.30
2018-04-02T02:56:19.747Z,6.32
2018-04-02T02:56:53.470Z,6.35
2018-04-02T02:57:27.196Z,6.68
2018-04-02T02:58:01.036Z,6.30
2018-04-02T02:58:35.518Z,7.03
2018-04-02T02:59:09.236Z,6.55
2018-04-02T02:59:43.717Z,6.45
2018-04-02T03:00:17.428Z,6.70
2018-04-02T03:00:51.137Z,7.62
2018-04-02T03:01:24.958Z,6.87
2018-04-02T03:01:58.684Z,6.60
2018-04-02T03:02:32.420Z,7.00
2018-04-02T03:03:06.136Z,6.40
2018-04-02T03:03:39.860Z,6.72
2018-04-02T03:04:13.579Z,7.05
2018-04-02T03:04:48.086Z,7.00
2018-04-02T03:05:21.982Z,7.87
2018-04-02T03:05:56.247Z,7.05
2018-04-02T03:06:30.180Z,6.95
2018-04-02T03:07:04.701Z,8.23
2018-04-02T03:07:38.423Z,7.43
2018-04-02T03:08:12.142Z,7.10
2018-04-02T03:08:45.888Z,8.43
2018-04-02T03:09:19.624Z,7.10
2018-04-02T03:09:53.319Z,6.40
2018-04-02T03:10:27.068Z,6.90
2018-04-02T03:11:00.788Z,7.30
2018-04-02T03:11:34.518Z,7.32
2018-04-02T03:12:08.994Z,7.45
2018-04-02T03:12:42.704Z,7.75
2018-04-02T03:13:16.409Z,6.97
2018-04-02T03:13:50.654Z,7.00
2018-04-02T03:14:24.370Z,7.35
2018-04-02T03:14:58.092Z,7.25
2018-04-02T03:15:32.571Z,7.50
2018-04-02T03:16:06.309Z,8.30
2018-04-02T03:16:40.068Z,7.57
2018-04-02T03:17:13.780Z,7.60
2018-04-02T03:17:47.508Z,7.60
2018-04-02T03:18:21.581Z,8.10
2018-04-02T03:18:55.313Z,7.78
2018-04-02T03:19:29.052Z,7.80
2018-04-02T03:20:02.777Z,7.50
2018-04-02T03:20:36.490Z,7.53
2018-04-02T03:21:10.216Z,7.55
2018-04-02T03:21:44.818Z,8.10
2018-04-02T03:22:19.303Z,8.38
2018-04-02T03:22:53.014Z,7.47
2018-04-02T03:23:26.778Z,7.35
2018-04-02T03:24:00.506Z,7.60
2018-04-02T03:24:35.020Z,8.85
2018-04-02T03:25:08.752Z,8.20
2018-04-02T03:25:42.492Z,8.02
2018-04-02T03:26:16.977Z,7.22
2018-04-02T03:26:50.730Z,8.10
2018-04-02T03:27:24.441Z,9.00
2018-04-02T03:27:58.174Z,8.55
2018-04-02T03:28:32.431Z,8.55
2018-04-02T03:29:06.165Z,8.35
2018-04-02T03:29:39.902Z,8.70
2018-04-02T03:30:13.619Z,9.20
2018-04-02T03:30:47.321Z,8.02
2018-04-02T03:31:21.029Z,7.90
2018-04-02T03:31:55.542Z,7.97
2018-04-02T03:32:30.026Z,8.95
2018-04-02T03:33:03.742Z,7.62
2018-04-02T03:33:38.218Z,7.85
2018-04-02T03:34:11.938Z,8.52
2018-04-02T03:34:46.480Z,7.40
2018-04-02T03:35:20.196Z,7.85
2018-04-02T03:35:53.901Z,8.23
2018-04-02T03:36:27.622Z,7.90
2018-04-02T03:37:02.125Z,7.60
2018-04-02T03:37:36.597Z,8.68
2018-04-02T03:38:10.300Z,8.30
2018-04-02T03:38:44.018Z,8.48
2018-04-02T03:39:18.498Z,8.75
2018-04-02T03:39:52.209Z,7.95
2018-04-02T03:40:26.711Z,8.93
2018-04-02T03:41:01.201Z,8.48
2018-04-02T03:41:34.938Z,9.18
2018-04-02T03:42:08.682Z,8.07
2018-04-02T03:42:42.396Z,8.30
2018-04-02T03:43:16.118Z,8.38
2018-04-02T03:43:49.828Z,8.48
2018-04-02T03:44:23.544Z,9.05
2018-04-02T03:44:57.278Z,7.78
2018-04-02T03:45:31.014Z,8.88
2018-04-02T03:46:04.393Z,9.70
2018-04-02T03:46:38.107Z,8.70
2018-04-02T03:47:11.844Z,8.23
2018-04-02T03:47:45.582Z,8.60
2018-04-02T03:48:19.300Z,9.07
2018-04-02T03:48:53.448Z,8.60
2018-04-02T03:49:27.161Z,8.27
2018-04-02T03:50:00.874Z,7.97
2018-04-02T03:50:35.370Z,8.55
2018-04-02T03:51:09.090Z,8.75
2018-04-02T03:51:43.569Z,8.45
2018-04-02T03:52:17.319Z,8.85
2018-04-02T03:52:51.038Z,8.98
2018-04-02T03:53:24.530Z,8.18
2018-04-02T03:53:58.450Z,9.38
2018-04-02T03:54:32.934Z,8.65
2018-04-02T03:55:06.684Z,9.10
2018-04-02T03:55:40.394Z,7.78
2018-04-02T03:56:14.104Z,9.25
2018-04-02T03:56:47.846Z,8.60
2018-04-02T03:57:21.587Z,8.30
2018-04-02T03:57:55.300Z,8.88
2018-04-02T03:58:29.790Z,8.70
2018-04-02T03:59:03.512Z,8.80
2018-04-02T03:59:38.010Z,8.98
2018-04-02T04:00:12.504Z,9.10
2018-04-02T04:00:46.224Z,7.95
2018-04-02T04:01:20.695Z,7.75
2018-04-02T04:01:54.411Z,7.97
2018-04-02T04:02:28.616Z,8.70
2018-04-02T04:03:03.102Z,8.95
2018-04-02T04:03:36.822Z,9.10
2018-04-02T04:04:10.552Z,8.75
2018-04-02T04:04:44.270Z,9.05
2018-04-02T04:05:17.981Z,8.77
2018-04-02T04:05:52.466Z,8.35
2018-04-02T04:06:26.184Z,8.95
2018-04-02T04:07:00.686Z,9.00
2018-04-02T04:07:35.202Z,8.00
2018-04-02T04:08:09.682Z,9.90
2018-04-02T04:08:43.404Z,8.02
2018-04-02T04:09:17.878Z,8.80
2018-04-02T04:09:51.596Z,8.70
2018-04-02T04:10:26.076Z,8.45
2018-04-02T04:10:59.802Z,8.85
2018-04-02T04:11:34.274Z,8.20
2018-04-02T04:12:07.993Z,8.50
2018-04-02T04:12:42.504Z,8.63
2018-04-02T04:13:16.978Z,8.30
2018-04-02T04:13:50.698Z,8.45
2018-04-02T04:14:25.178Z,8.50
2018-04-02T04:14:58.876Z,8.60
2018-04-02T04:15:32.596Z,8.05
2018-04-02T04:16:07.206Z,8.75
2018-04-02T04:16:41.687Z,8.25
2018-04-02T04:17:15.400Z,9.20
2018-04-02T04:17:49.142Z,8.40
2018-04-02T04:18:22.858Z,8.90
2018-04-02T04:18:56.607Z,8.50
2018-04-02T04:19:30.327Z,8.40
2018-04-02T04:20:03.713Z,8.75
2018-04-02T04:20:37.414Z,8.50
2018-04-02T04:21:11.151Z,8.50
2018-04-02T04:21:44.896Z,10.00
2018-04-02T04:22:18.615Z,10.05
2018-04-02T04:22:53.133Z,8.93
2018-04-02T04:23:27.808Z,8.35
2018-04-02T04:24:01.546Z,8.18
2018-04-02T04:24:35.234Z,9.00
2018-04-02T04:25:08.951Z,8.43
2018-04-02T04:25:42.663Z,8.30
2018-04-02T04:26:16.420Z,8.70
2018-04-02T04:26:49.905Z,8.02
2018-04-02T04:27:23.392Z,9.38
2018-04-02T04:27:57.250Z,9.00
2018-04-02T04:28:31.758Z,9.35
2018-04-02T04:29:06.240Z,9.82
2018-04-02T04:29:39.955Z,9.18
2018-04-02T04:30:14.432Z,10.15
2018-04-02T04:30:48.176Z,9.25
2018-04-02T04:31:21.890Z,9.02
2018-04-02T04:31:55.608Z,8.70
2018-04-02T04:32:29.327Z,9.80
2018-04-02T04:33:03.841Z,9.60
2018-04-02T04:33:38.323Z,9.95
2018-04-02T04:34:12.038Z,9.18
2018-04-02T04:34:46.522Z,10.43
2018-04-02T04:35:20.244Z,10.18
2018-04-02T04:35:54.732Z,9.60
2018-04-02T04:36:30.071Z,10.57
2018-04-02T04:37:04.550Z,10.10
2018-04-02T04:37:38.274Z,10.30
2018-04-02T04:38:12.800Z,10.00
2018-04-02T04:38:46.570Z,9.90
2018-04-02T04:39:21.051Z,9.68
2018-04-02T04:39:54.774Z,10.13
2018-04-02T04:40:29.317Z,10.05
2018-04-02T04:41:03.185Z,10.60
2018-04-02T04:41:37.673Z,10.02
2018-04-02T04:42:11.404Z,10.80
2018-04-02T04:42:45.127Z,9.95
2018-04-02T04:43:18.885Z,11.38
2018-04-02T04:43:52.607Z,10.07
2018-04-02T04:44:26.344Z,11.70
2018-04-02T04:45:00.826Z,11.15
2018-04-02T04:45:34.557Z,11.10
2018-04-02T04:46:08.277Z,10.40
2018-04-02T04:46:42.008Z,10.63
2018-04-02T04:47:16.488Z,10.23
2018-04-02T04:47:50.216Z,11.45
2018-04-02T04:48:24.746Z,10.88
2018-04-02T04:48:58.483Z,11.57
2018-04-02T04:49:32.212Z,11.38
2018-04-02T04:50:06.466Z,11.52
2018-04-02T04:50:39.970Z,12.23
2018-04-02T04:51:13.689Z,11.40
2018-04-02T04:51:48.181Z,12.27
2018-04-02T04:52:21.906Z,12.05
2018-04-02T04:52:55.645Z,11.85
2018-04-02T04:53:29.393Z,12.15
2018-04-02T04:54:03.114Z,12.02
2018-04-02T04:54:36.830Z,12.52
2018-04-02T04:55:10.570Z,13.25
2018-04-02T04:55:44.294Z,13.00
2018-04-02T04:56:18.028Z,11.82
2018-04-02T04:56:52.515Z,12.40
2018-04-02T04:57:26.243Z,12.93
2018-04-02T04:57:59.981Z,12.90
2018-04-02T04:58:33.749Z,12.55
2018-04-02T04:59:07.547Z,13.57
2018-04-02T04:59:41.270Z,13.00
2018-04-02T05:00:15.087Z,13.93
2018-04-02T05:00:49.569Z,12.57
2018-04-02T05:01:23.298Z,13.23
2018-04-02T05:01:57.771Z,13.68
2018-04-02T05:02:31.506Z,13.60
2018-04-02T05:03:05.232Z,12.10
2018-04-02T05:03:39.004Z,12.13
2018-04-02T05:04:12.732Z,13.73
2018-04-02T05:04:46.460Z,13.13
2018-04-02T05:05:20.710Z,13.30
2018-04-02T05:05:54.447Z,13.05
2018-04-02T05:06:28.934Z,13.13
2018-04-02T05:07:02.654Z,13.77
2018-04-02T05:07:36.396Z,13.50
2018-04-02T05:08:10.123Z,13.40
2018-04-02T05:08:44.653Z,12.45
2018-04-02T05:09:18.382Z,11.80
2018-04-02T05:09:52.110Z,12.65
2018-04-02T05:10:26.595Z,12.80
2018-04-02T05:11:00.322Z,12.27
2018-04-02T05:11:34.069Z,12.80
2018-04-02T05:12:07.821Z,12.68
2018-04-02T05:12:41.541Z,11.55
2018-04-02T05:13:15.027Z,10.95
2018-04-02T05:13:48.783Z,11.70
2018-04-02T05:14:22.511Z,11.75
2018-04-02T05:14:56.227Z,10.48
2018-04-02T05:15:29.945Z,11.38
2018-04-02T05:16:03.684Z,11.40
2018-04-02T05:16:37.411Z,11.77
2018-04-02T05:17:11.892Z,10.68
2018-04-02T05:17:45.621Z,12.23
2018-04-02T05:18:20.140Z,11.75
2018-04-02T05:18:53.884Z,11.35
2018-04-02T05:19:27.782Z,12.30
2018-04-02T05:20:01.554Z,10.70
2018-04-02T05:20:35.306Z,11.90
2018-04-02T05:21:08.809Z,10.55
2018-04-02T05:21:42.297Z,11.63
2018-04-02T05:22:16.047Z,11.30
2018-04-02T05:22:50.545Z,11.32
2018-04-02T05:23:24.472Z,10.25
2018-04-02T05:23:58.225Z,11.63
2018-04-02T05:24:31.733Z,10.73
2018-04-02T05:25:06.245Z,11.15
2018-04-02T05:25:40.744Z,12.00
2018-04-02T05:26:15.241Z,10.65
2018-04-02T05:26:48.962Z,11.10
2018-04-02T05:27:22.698Z,11.18
2018-04-02T05:27:56.427Z,11.80
2018-04-02T05:28:30.914Z,11.38
2018-04-02T05:29:04.663Z,10.70
2018-04-02T05:29:38.399Z,11.70
2018-04-02T05:30:12.122Z,10.68
2018-04-02T05:30:46.612Z,11.55
2018-04-02T05:31:20.351Z,11.38
2018-04-02T05:31:54.087Z,10.98
2018-04-02T05:32:27.826Z,11.20
2018-04-02T05:33:01.548Z,11.60
2018-04-02T05:33:35.274Z,10.45
2018-04-02T05:34:09.790Z,11.02
2018-04-02T05:34:44.279Z,10.25
2018-04-02T05:35:18.006Z,13.05
2018-04-02T05:35:51.732Z,11.25
2018-04-02T05:36:25.460Z,12.15
2018-04-02T05:36:59.963Z,11.65
2018-04-02T05:37:34.462Z,11.48
2018-04-02T05:38:08.235Z,11.50
2018-04-02T05:38:41.965Z,11.50
2018-04-02T05:39:16.491Z,11.57
2018-04-02T05:39:50.236Z,11.75
2018-04-02T05:40:23.966Z,12.63
2018-04-02T05:40:58.455Z,12.30
2018-04-02T05:41:32.934Z,11.40
2018-04-02T05:42:06.647Z,12.57
2018-04-02T05:42:40.378Z,12.18
2018-04-02T05:43:14.098Z,11.85
2018-04-02T05:43:47.922Z,12.13
2018-04-02T05:44:21.681Z,11.65
2018-04-02T05:44:55.410Z,11.30
2018-04-02T05:45:29.144Z,11.90
2018-04-02T05:46:02.890Z,11.18
2018-04-02T05:46:36.606Z,11.70
2018-04-02T05:47:10.339Z,11.95
2018-04-02T05:47:44.053Z,12.00
2018-04-02T05:48:17.820Z,11.30
2018-04-02T05:48:51.538Z,12.27
2018-04-02T05:49:25.304Z,11.93
2018-04-02T05:49:59.027Z,11.57
2018-04-02T05:50:32.778Z,12.07
2018-04-02T05:51:06.490Z,11.43
2018-04-02T05:51:40.221Z,12.75
2018-04-02T05:52:14.707Z,11.88
2018-04-02T05:52:48.432Z,11.57
2018-04-02T05:53:22.159Z,11.68
2018-04-02T05:53:55.893Z,11.75
2018-04-02T05:54:30.423Z,11.00
2018-04-02T05:55:04.143Z,12.05
2018-04-02T05:55:38.656Z,13.20
2018-04-02T05:56:12.371Z,12.15
2018-04-02T05:56:46.160Z,12.20
2018-04-02T05:57:20.019Z,11.63
2018-04-02T05:57:53.520Z,11.73
2018-04-02T05:58:27.247Z,12.10
2018-04-02T05:59:01.750Z,12.30
2018-04-02T05:59:35.517Z,12.35
2018-04-02T06:00:09.243Z,12.10
2018-04-02T06:00:43.731Z,12.23
2018-04-02T06:01:17.466Z,12.02
2018-04-02T06:01:51.189Z,12.30
2018-04-02T06:02:24.915Z,12.70
2018-04-02T06:02:59.409Z,13.45
2018-04-02T06:03:33.135Z,11.73
2018-04-02T06:04:07.640Z,12.45
2018-04-02T06:04:41.407Z,13.00
2018-04-02T06:05:15.160Z,12.98
2018-04-02T06:05:49.817Z,13.40
2018-04-02T06:06:23.535Z,13.20
2018-04-02T06:06:57.259Z,12.37
2018-04-02T06:07:30.978Z,12.10
2018-04-02T06:08:04.707Z,12.40
2018-04-02T06:08:38.447Z,12.85
2018-04-02T06:09:12.160Z,13.23
2018-04-02T06:09:45.916Z,13.57
2018-04-02T06:10:19.667Z,11.25
2018-04-02T06:10:54.177Z,12.32
2018-04-02T06:11:28.455Z,12.80
2018-04-02T06:12:02.185Z,12.00
2018-04-02T06:12:35.909Z,13.50
2018-04-02T06:13:09.623Z,13.32
2018-04-02T06:13:43.348Z,13.00
2018-04-02T06:14:17.075Z,12.15
2018-04-02T06:14:50.851Z,14.20
2018-04-02T06:15:24.619Z,13.38
2018-04-02T06:15:59.094Z,12.98
2018-04-02T06:16:32.837Z,13.60
2018-04-02T06:17:06.554Z,13.65
2018-04-02T06:17:40.295Z,12.40
2018-04-02T06:18:14.805Z,14.25
2018-04-02T06:18:49.313Z,12.80
2018-04-02T06:19:23.825Z,13.55
2018-04-02T06:19:58.342Z,14.15
2018-04-02T06:20:32.063Z,14.60
2018-04-02T06:21:05.450Z,13.68
2018-04-02T06:21:39.167Z,13.80
2018-04-02T06:22:12.911Z,14.07
2018-04-02T06:22:46.643Z,12.93
2018-04-02T06:23:20.380Z,14.55
2018-04-02T06:23:54.103Z,15.23
2018-04-02T06:24:27.847Z,15.18
2018-04-02T06:25:02.388Z,15.10
2018-04-02T06:25:36.116Z,14.48
2018-04-02T06:26:09.857Z,14.98
2018-04-02T06:26:43.587Z,14.82
2018-04-02T06:27:17.309Z,17.00
2018-04-02T06:27:51.807Z,15.55
2018-04-02T06:28:25.281Z,15.40
2018-04-02T06:28:59.055Z,15.15
2018-04-02T06:29:32.771Z,15.57
2018-04-02T06:30:06.528Z,16.45
2018-04-02T06:30:40.239Z,16.75
2018-04-02T06:31:13.299Z,17.55
2018-04-02T06:31:47.020Z,16.67
2018-04-02T06:32:20.763Z,16.40
2018-04-02T06:32:54.489Z,16.12
2018-04-02T06:33:28.215Z,18.50
2018-04-02T06:34:02.707Z,16.83
2018-04-02T06:34:36.441Z,17.80
2018-04-02T06:35:10.178Z,16.33
2018-04-02T06:35:43.895Z,15.95
2018-04-02T06:36:17.633Z,17.60
2018-04-02T06:36:51.360Z,17.75
2018-04-02T06:37:24.847Z,17.27
2018-04-02T06:37:58.572Z,16.30
2018-04-02T06:38:33.074Z,17.02
2018-04-02T06:39:07.551Z,16.40
2018-04-02T06:39:41.268Z,16.27
2018-04-02T06:40:15.791Z,17.90
2018-04-02T06:40:49.511Z,18.23
2018-04-02T06:41:23.229Z,16.50
2018-04-02T06:41:56.939Z,18.02
2018-04-02T06:42:31.427Z,18.08
2018-04-02T06:43:05.147Z,16.27
2018-04-02T06:43:39.631Z,16.80
2018-04-02T06:44:13.357Z,16.60
2018-04-02T06:44:47.081Z,17.17
2018-04-02T06:45:20.827Z,16.70
2018-04-02T06:45:55.319Z,17.70
2018-04-02T06:46:29.049Z,18.12
2018-04-02T06:47:02.765Z,18.37
2018-04-02T06:47:36.489Z,17.77
2018-04-02T06:48:10.213Z,17.62
2018-04-02T06:48:43.931Z,16.95
2018-04-02T06:49:17.515Z,16.67
2018-04-02T06:49:51.243Z,16.60
2018-04-02T06:50:25.007Z,17.42
2018-04-02T06:50:58.747Z,16.17
2018-04-02T06:51:33.235Z,18.00
2018-04-02T06:52:06.967Z,17.33
2018-04-02T06:52:40.684Z,17.33
2018-04-02T06:53:14.409Z,17.12
2018-04-02T06:53:48.180Z,18.00
2018-04-02T06:54:21.895Z,17.45
2018-04-02T06:54:55.607Z,18.00
2018-04-02T06:55:30.117Z,18.17
2018-04-02T06:56:04.601Z,16.33
2018-04-02T06:56:38.325Z,17.35
2018-04-02T06:57:12.048Z,17.40
2018-04-02T06:57:45.787Z,17.30
2018-04-02T06:58:20.270Z,17.58
2018-04-02T06:58:53.994Z,17.48
2018-04-02T06:59:28.478Z,17.77
2018-04-02T07:00:03.411Z,18.55
2018-04-02T07:00:37.935Z,18.33
2018-04-02T07:01:12.198Z,16.87
2018-04-02T07:01:45.932Z,16.75
2018-04-02T07:02:20.081Z,16.42
2018-04-02T07:02:53.789Z,18.12
2018-04-02T07:03:27.288Z,16.77
2018-04-02T07:04:00.995Z,17.65
2018-04-02T07:04:35.137Z,18.20
2018-04-02T07:05:09.052Z,18.42
2018-04-02T07:05:42.789Z,18.00
2018-04-02T07:06:16.527Z,18.23
2018-04-02T07:06:50.254Z,17.92
2018-04-02T07:07:24.736Z,17.75
2018-04-02T07:07:58.460Z,17.65
2018-04-02T07:08:32.983Z,18.42
2018-04-02T07:09:07.405Z,17.48
2018-04-02T07:09:41.109Z,16.67
2018-04-02T07:10:14.847Z,17.73
2018-04-02T07:10:49.359Z,17.70
2018-04-02T07:11:23.845Z,17.92
2018-04-02T07:11:57.578Z,17.65
2018-04-02T07:12:31.313Z,18.80
2018-04-02T07:13:05.037Z,18.55
2018-04-02T07:13:38.764Z,18.23
2018-04-02T07:14:12.477Z,17.98
2018-04-02T07:14:46.191Z,17.65
2018-04-02T07:15:19.905Z,17.80
2018-04-02T07:15:54.436Z,18.42
2018-04-02T07:16:28.179Z,17.08
2018-04-02T07:17:01.905Z,17.33
2018-04-02T07:17:36.398Z,17.90
2018-04-02T07:18:10.881Z,16.85
2018-04-02T07:18:44.602Z,15.90
2018-04-02T07:19:19.082Z,16.80
2018-04-02T07:19:52.821Z,15.25
2018-04-02T07:20:26.535Z,15.95
2018-04-02T07:21:00.282Z,16.70
2018-04-02T07:21:34.765Z,17.25
2018-04-02T07:22:08.498Z,17.25
2018-04-02T07:22:41.980Z,17.27
2018-04-02T07:23:16.479Z,16.48
2018-04-02T07:23:50.978Z,14.45
2018-04-02T07:24:25.476Z,16.25
2018-04-02T07:24:59.384Z,16.25
2018-04-02T07:25:33.907Z,17.10